Time;durP1;ratioP1;P1;durP2;ratioP2;P2;SDS_P1;SDS_P2;PMS_P1;PMS_P2;Temp;Humidity;BMP_temperature;BMP_pressure;BME280_temperature;BME280_humidity;BME280_pressure;Samples;Min_cycle;Max_cycle;Signal;HPM_P1;HPM_P2
2022/04/06 00:00:12;;;;;;;;;;;;;;;;;;5096288;28;20382;-68
2022/04/06 00:02:39;;;;;;;;;;;;;;;;;;5096281;28;19915;-68
2022/04/06 00:05:05;;;;;;;;;;;;;;;;;;5095861;28;20416;-68
2022/04/06 00:07:31;;;;;;;;;;;;;;;;;;5096312;28;20006;-68
2022/04/06 00:09:57;;;;;;;;;;;;;;;;;;5096325;28;20280;-68
2022/04/06 00:12:23;;;;;;;;;;;;;;;;;;5095674;28;19915;-68
2022/04/06 00:14:49;;;;;;;;;;;;;;;;;;5095934;28;19908;-68
2022/04/06 00:17:15;;;;;;;;;;;;;;;;;;5095725;28;20287;-68
2022/04/06 00:19:41;;;;;;;;;;;;;;;;;;5095630;28;19908;-68
2022/04/06 00:22:07;;;;;;;;;;;;;;;;;;5077813;28;19908;-68
2022/04/06 00:24:33;;;;;;;;;;;;;;;;;;5096168;28;19915;-68
2022/04/06 00:26:59;;;;;;;;;;;;;;;;;;5095424;28;19912;-68
2022/04/06 00:29:25;;;;;;;;;;;;;;;;;;5095784;28;19943;-68
2022/04/06 00:31:51;;;;;;;;;;;;;;;;;;5095343;28;19916;-68
2022/04/06 00:34:17;;;;;;;;;;;;;;;;;;5095804;28;19915;-68
2022/04/06 00:36:43;;;;;;;;;;;;;;;;;;5095493;28;19955;-68
2022/04/06 00:39:08;;;;;;;;;;;;;;;;;;5095312;28;19912;-68
2022/04/06 00:41:35;;;;;;;;;;;;;;;;;;5096089;28;20360;-68
2022/04/06 00:44:01;;;;;;;;;;;;;;;;;;5095762;28;19916;-68
2022/04/06 00:46:27;;;;;;;;;;;;;;;;;;5095039;28;19908;-68
2022/04/06 00:48:53;;;;;;;;;;;;;;;;;;5095434;28;19909;-68
2022/04/06 00:51:19;;;;;;;;;;;;;;;;;;5095275;28;19912;-68
2022/04/06 00:53:47;;;;;;;;;;;;;;;;;;5094843;28;19950;-68
2022/04/06 00:56:13;;;;;;;;;;;;;;;;;;5095213;28;20391;-68
2022/04/06 00:58:39;;;;;;;;;;;;;;;;;;5095157;28;19952;-68
2022/04/06 01:01:05;;;;;;;;;;;;;;;;;;5094943;28;20268;-69
2022/04/06 01:03:31;;;;;;;;;;;;;;;;;;5095230;28;19915;-68
2022/04/06 01:05:57;;;;;;;;;;;;;;;;;;5095252;28;19908;-68
2022/04/06 01:08:23;;;;;;;;;;;;;;;;;;5094641;28;19915;-68
2022/04/06 01:10:49;;;;;;;;;;;;;;;;;;5095039;28;19915;-68
2022/04/06 01:13:15;;;;;;;;;;;;;;;;;;5095114;28;19912;-68
2022/04/06 01:15:41;;;;;;;;;;;;;;;;;;5094644;28;19915;-68
2022/04/06 01:18:07;;;;;;;;;;;;;;;;;;5094612;28;20411;-68
2022/04/06 01:20:33;;;;;;;;;;;;;;;;;;5094779;28;19908;-68
2022/04/06 01:22:59;;;;;;;;;;;;;;;;;;5094327;28;20276;-68
2022/04/06 01:25:27;;;;;;;;;;;;;;;;;;5094673;28;19919;-68
2022/04/06 01:27:53;;;;;;;;;;;;;;;;;;5094378;28;20368;-68
2022/04/06 01:30:19;;;;;;;;;;;;;;;;;;5094187;28;19912;-68
2022/04/06 01:32:45;;;;;;;;;;;;;;;;;;5094608;28;19974;-68
2022/04/06 01:35:11;;;;;;;;;;;;;;;;;;5094172;28;20002;-68
2022/04/06 01:37:37;;;;;;;;;;;;;;;;;;5094429;28;19916;-68
2022/04/06 01:40:03;;;;;;;;;;;;;;;;;;5094380;28;19931;-68
2022/04/06 01:42:29;;;;;;;;;;;;;;;;;;5094411;28;19908;-68
2022/04/06 01:44:55;;;;;;;;;;;;;;;;;;5094963;28;19920;-68
2022/04/06 01:47:21;;;;;;;;;;;;;;;;;;5094603;28;19944;-68
2022/04/06 01:52:32;;;;;;;;;;;;;;;;;;5094383;28;20035;-68
2022/04/06 01:55:01;;;;;;;;;;;;;;;;;;5094268;28;19947;-68
2022/04/06 01:57:27;;;;;;;;;;;;;;;;;;5093966;28;19916;-68
2022/04/06 01:59:53;;;;;;;;;;;;;;;;;;5094153;28;19976;-68
2022/04/06 02:02:19;;;;;;;;;;;;;;;;;;5094734;28;20383;-68
2022/04/06 02:04:45;;;;;;;;;;;;;;;;;;5093791;28;19995;-68
2022/04/06 02:07:13;;;;;;;;;;;;;;;;;;5094081;28;19919;-68
2022/04/06 02:09:39;;;;;;;;;;;;;;;;;;5094213;28;19908;-68
2022/04/06 02:12:05;;;;;;;;;;;;;;;;;;5093586;28;19919;-67
2022/04/06 02:14:31;;;;;;;;;;;;;;;;;;5094018;28;20352;-69
2022/04/06 02:16:57;;;;;;;;;;;;;;;;;;5093653;28;19920;-68
2022/04/06 02:19:23;;;;;;;;;;;;;;;;;;5093525;28;20364;-68
2022/04/06 02:21:49;;;;;;;;;;;;;;;;;;5094233;28;19908;-68
2022/04/06 02:24:15;;;;;;;;;;;;;;;;;;5093842;28;20287;-68
2022/04/06 02:26:41;;;;;;;;;;;;;;;;;;5094160;28;19947;-68
2022/04/06 02:29:07;;;;;;;;;;;;;;;;;;5093798;28;19915;-67
2022/04/06 02:31:34;;;;;;;;;;;;;;;;;;5093390;28;19908;-68
2022/04/06 02:33:59;;;;;;;;;;;;;;;;;;5093872;28;19915;-68
2022/04/06 02:36:25;;;;;;;;;;;;;;;;;;5094032;28;19908;-68
2022/04/06 02:38:51;;;;;;;;;;;;;;;;;;5095062;28;19912;-68
2022/04/06 02:41:17;;;;;;;;;;;;;;;;;;5097885;28;19961;-69
2022/04/06 02:43:43;;;;;;;;;;;;;;;;;;5097824;28;19909;-68
2022/04/06 02:46:09;;;;;;;;;;;;;;;;;;5097512;28;19908;-68
2022/04/06 02:48:35;;;;;;;;;;;;;;;;;;5098144;28;20383;-68
2022/04/06 02:51:01;;;;;;;;;;;;;;;;;;5097609;28;19969;-68
2022/04/06 02:53:27;;;;;;;;;;;;;;;;;;5097528;28;19998;-68
2022/04/06 02:55:53;;;;;;;;;;;;;;;;;;5097639;28;20311;-68
2022/04/06 02:58:19;;;;;;;;;;;;;;;;;;5097429;28;19945;-68
2022/04/06 03:00:45;;;;;;;;;;;;;;;;;;5097107;28;20331;-68
2022/04/06 03:03:11;;;;;;;;;;;;;;;;;;5097648;28;19955;-68
2022/04/06 03:05:39;;;;;;;;;;;;;;;;;;5097359;28;19944;-68
2022/04/06 03:08:05;;;;;;;;;;;;;;;;;;5097056;28;20364;-68
2022/04/06 03:10:31;;;;;;;;;;;;;;;;;;5097400;28;19975;-68
2022/04/06 03:12:57;;;;;;;;;;;;;;;;;;5097211;28;19961;-68
2022/04/06 03:15:23;;;;;;;;;;;;;;;;;;5096828;28;19912;-68
2022/04/06 03:17:49;;;;;;;;;;;;;;;;;;5097038;28;19927;-68
2022/04/06 03:20:15;;;;;;;;;;;;;;;;;;5097122;28;20331;-68
2022/04/06 03:22:41;;;;;;;;;;;;;;;;;;5096684;28;19908;-68
2022/04/06 03:25:07;;;;;;;;;;;;;;;;;;5097020;28;19993;-68
2022/04/06 03:27:34;;;;;;;;;;;;;;;;;;5096721;28;19908;-68
2022/04/06 03:29:59;;;;;;;;;;;;;;;;;;5096985;28;19908;-67
2022/04/06 03:32:25;;;;;;;;;;;;;;;;;;5096907;28;19912;-68
2022/04/06 03:34:51;;;;;;;;;;;;;;;;;;5096465;28;20003;-68
2022/04/06 03:37:17;;;;;;;;;;;;;;;;;;5096682;28;19912;-68
2022/04/06 03:39:43;;;;;;;;;;;;;;;;;;5096696;28;19908;-67
2022/04/06 03:42:09;;;;;;;;;;;;;;;;;;5096694;28;20419;-68
2022/04/06 03:44:35;;;;;;;;;;;;;;;;;;5096645;28;19969;-68
2022/04/06 03:47:01;;;;;;;;;;;;;;;;;;5096680;28;19915;-67
2022/04/06 03:49:27;;;;;;;;;;;;;;;;;;5095686;28;19908;-71
2022/04/06 03:51:53;;;;;;;;;;;;;;;;;;5096544;28;19908;-72
2022/04/06 03:54:19;;;;;;;;;;;;;;;;;;5097031;28;20367;-72
2022/04/06 03:56:45;;;;;;;;;;;;;;;;;;5095976;28;19923;-71
2022/04/06 03:59:11;;;;;;;;;;;;;;;;;;5096560;28;20057;-71
2022/04/06 04:01:37;;;;;;;;;;;;;;;;;;5096328;28;19908;-72
2022/04/06 04:04:04;;;;;;;;;;;;;;;;;;5096078;28;19914;-71
2022/04/06 04:06:30;;;;;;;;;;;;;;;;;;5096720;28;19912;-72
2022/04/06 04:08:56;;;;;;;;;;;;;;;;;;5096221;28;19914;-72
2022/04/06 04:11:22;;;;;;;;;;;;;;;;;;5095736;28;19908;-73
2022/04/06 04:13:48;;;;;;;;;;;;;;;;;;5096134;28;19915;-72
2022/04/06 04:16:14;;;;;;;;;;;;;;;;;;5095809;28;20011;-72
2022/04/06 04:18:40;;;;;;;;;;;;;;;;;;5095724;28;19920;-72
2022/04/06 04:23:51;;;;;;;;;;;;;;;;;;5095542;28;19916;-71
2022/04/06 04:26:17;;;;;;;;;;;;;;;;;;5095784;28;19909;-71
2022/04/06 04:28:43;;;;;;;;;;;;;;;;;;5096023;28;19954;-72
2022/04/06 04:31:09;;;;;;;;;;;;;;;;;;5095331;28;19908;-71
2022/04/06 04:33:35;;;;;;;;;;;;;;;;;;5095896;28;19912;-72
2022/04/06 04:36:01;;;;;;;;;;;;;;;;;;5097143;28;19908;-73
2022/04/06 04:38:27;;;;;;;;;;;;;;;;;;5095509;28;20228;-72
2022/04/06 04:40:54;;;;;;;;;;;;;;;;;;5095602;28;19908;-73
2022/04/06 04:43:20;;;;;;;;;;;;;;;;;;5095669;28;19930;-72
2022/04/06 04:45:46;;;;;;;;;;;;;;;;;;5095433;28;20430;-72
2022/04/06 04:48:12;;;;;;;;;;;;;;;;;;5096206;28;19908;-72
2022/04/06 04:50:38;;;;;;;;;;;;;;;;;;5095476;28;20337;-71
2022/04/06 04:53:05;;;;;;;;;;;;;;;;;;5095142;28;19912;-72
2022/04/06 04:55:31;;;;;;;;;;;;;;;;;;5095611;28;20310;-72
2022/04/06 04:57:57;;;;;;;;;;;;;;;;;;5095602;28;19922;-72
2022/04/06 05:00:23;;;;;;;;;;;;;;;;;;5094549;28;19969;-72
2022/04/06 05:02:49;;;;;;;;;;;;;;;;;;5094890;28;19976;-72
2022/04/06 05:05:15;;;;;;;;;;;;;;;;;;5095159;28;20360;-72
2022/04/06 05:07:41;;;;;;;;;;;;;;;;;;5092143;28;19908;-71
2022/04/06 05:10:07;;;;;;;;;;;;;;;;;;5095081;28;19920;-72
2022/04/06 05:12:33;;;;;;;;;;;;;;;;;;5090097;28;19908;-72
2022/04/06 05:14:59;;;;;;;;;;;;;;;;;;5091519;28;19935;-72
2022/04/06 05:17:25;;;;;;;;;;;;;;;;;;5093905;28;20295;-73
2022/04/06 05:19:51;;;;;;;;;;;;;;;;;;5094396;28;19908;-72
2022/04/06 05:22:17;;;;;;;;;;;;;;;;;;5090678;28;19912;-72
2022/04/06 05:24:43;;;;;;;;;;;;;;;;;;5088847;28;20019;-71
2022/04/06 05:27:09;;;;;;;;;;;;;;;;;;5089414;28;20348;-72
2022/04/06 05:29:35;;;;;;;;;;;;;;;;;;5090642;28;19920;-72
2022/04/06 05:32:01;;;;;;;;;;;;;;;;;;5081180;28;19999;-71
2022/04/06 05:34:27;;;;;;;;;;;;;;;;;;5090644;28;19947;-71
2022/04/06 05:36:53;;;;;;;;;;;;;;;;;;5092705;28;19961;-70
2022/04/06 05:39:19;;;;;;;;;;;;;;;;;;5092358;28;19931;-72
2022/04/06 05:41:45;;;;;;;;;;;;;;;;;;5092928;28;19919;-71
2022/04/06 05:44:11;;;;;;;;;;;;;;;;;;5093035;28;20371;-71
2022/04/06 05:46:37;;;;;;;;;;;;;;;;;;5076560;28;19968;-70
2022/04/06 05:49:03;;;;;;;;;;;;;;;;;;5075111;28;19968;-70
2022/04/06 05:51:29;;;;;;;;;;;;;;;;;;5093947;28;20386;-71
2022/04/06 05:53:55;;;;;;;;;;;;;;;;;;5092807;28;19919;-70
2022/04/06 05:56:21;;;;;;;;;;;;;;;;;;5089639;28;20284;-71
2022/04/06 05:58:47;;;;;;;;;;;;;;;;;;5092566;28;19943;-70
2022/04/06 06:01:13;;;;;;;;;;;;;;;;;;5092064;28;19908;-71
2022/04/06 06:03:39;;;;;;;;;;;;;;;;;;5092022;28;19920;-70
2022/04/06 06:06:05;;;;;;;;;;;;;;;;;;5090641;28;19969;-70
2022/04/06 06:08:31;;;;;;;;;;;;;;;;;;5093007;28;19912;-70
2022/04/06 06:10:57;;;;;;;;;;;;;;;;;;5084825;28;19919;-71
2022/04/06 06:13:23;;;;;;;;;;;;;;;;;;5091546;28;20353;-71
2022/04/06 06:15:49;;;;;;;;;;;;;;;;;;5092030;28;19966;-69
2022/04/06 06:18:15;;;;;;;;;;;;;;;;;;5091646;28;20390;-70
2022/04/06 06:20:41;;;;;;;;;;;;;;;;;;5069500;28;19912;-71
2022/04/06 06:23:07;;;;;;;;;;;;;;;;;;5074096;28;20007;-70
2022/04/06 06:25:33;;;;;;;;;;;;;;;;;;5092530;28;19908;-69
2022/04/06 06:27:59;;;;;;;;;;;;;;;;;;5091384;28;19913;-70
2022/04/06 06:30:27;;;;;;;;;;;;;;;;;;5092326;28;19955;-71
2022/04/06 06:32:53;;;;;;;;;;;;;;;;;;5091283;28;19966;-73
2022/04/06 06:35:20;;;;;;;;;;;;;;;;;;5072714;28;19919;-69
2022/04/06 06:37:47;;;;;;;;;;;;;;;;;;5090173;28;19957;-69
2022/04/06 06:40:13;;;;;;;;;;;;;;;;;;5088709;28;20023;-68
2022/04/06 06:42:40;;;;;;;;;;;;;;;;;;5095669;28;20457;-67
2022/04/06 06:45:06;;;;;;;;;;;;;;;;;;5091601;28;19912;-67
2022/04/06 06:47:32;;;;;;;;;;;;;;;;;;5092620;28;19908;-70
2022/04/06 06:49:58;;;;;;;;;;;;;;;;;;5073865;28;20390;-71
2022/04/06 06:52:24;;;;;;;;;;;;;;;;;;5086947;28;19919;-70
2022/04/06 06:54:50;;;;;;;;;;;;;;;;;;5090747;28;19924;-70
2022/04/06 06:57:16;;;;;;;;;;;;;;;;;;5091773;28;19920;-69
2022/04/06 06:59:42;;;;;;;;;;;;;;;;;;5088255;28;20356;-70
2022/04/06 07:02:08;;;;;;;;;;;;;;;;;;5071194;28;19995;-70
2022/04/06 07:04:34;;;;;;;;;;;;;;;;;;5083830;28;20512;-70
2022/04/06 07:07:00;;;;;;;;;;;;;;;;;;5063094;28;19908;-72
2022/04/06 07:09:26;;;;;;;;;;;;;;;;;;5091138;28;19969;-72
2022/04/06 07:11:52;;;;;;;;;;;;;;;;;;5091375;28;19915;-72
2022/04/06 07:14:19;;;;;;;;;;;;;;;;;;5071418;28;19916;-73
2022/04/06 07:16:45;;;;;;;;;;;;;;;;;;5083582;28;19993;-71
2022/04/06 07:19:12;;;;;;;;;;;;;;;;;;5092153;28;20412;-71
2022/04/06 07:21:38;;;;;;;;;;;;;;;;;;5086466;28;19912;-72
2022/04/06 07:24:04;;;;;;;;;;;;;;;;;;5094013;28;19912;-71
2022/04/06 07:26:30;;;;;;;;;;;;;;;;;;5091838;28;20354;-71
2022/04/06 07:28:56;;;;;;;;;;;;;;;;;;5095867;28;19920;-72
2022/04/06 07:31:22;;;;;;;;;;;;;;;;;;5096170;28;20340;-70
2022/04/06 07:33:48;;;;;;;;;;;;;;;;;;5082637;28;19908;-73
2022/04/06 07:36:14;;;;;;;;;;;;;;;;;;5095926;28;19927;-73
2022/04/06 07:38:40;;;;;;;;;;;;;;;;;;5094149;28;19970;-71
2022/04/06 07:41:06;;;;;;;;;;;;;;;;;;5095901;28;19911;-72
2022/04/06 07:43:32;;;;;;;;;;;;;;;;;;5084933;28;19999;-71
2022/04/06 07:45:58;;;;;;;;;;;;;;;;;;5095551;28;20011;-71
2022/04/06 07:48:26;;;;;;;;;;;;;;;;;;5094812;28;19912;-70
2022/04/06 07:50:52;;;;;;;;;;;;;;;;;;5095495;28;19954;-69
2022/04/06 07:53:18;;;;;;;;;;;;;;;;;;5077299;28;20379;-72
2022/04/06 07:55:44;;;;;;;;;;;;;;;;;;5095492;28;20118;-72
2022/04/06 07:58:10;;;;;;;;;;;;;;;;;;5094754;28;20313;-72
2022/04/06 08:00:36;;;;;;;;;;;;;;;;;;5093167;28;19966;-71
2022/04/06 08:03:02;;;;;;;;;;;;;;;;;;5094144;28;20257;-72
2022/04/06 08:05:28;;;;;;;;;;;;;;;;;;5098649;28;20352;-73
2022/04/06 08:07:54;;;;;;;;;;;;;;;;;;5094400;28;19923;-72
2022/04/06 08:10:20;;;;;;;;;;;;;;;;;;5093970;28;19908;-72
2022/04/06 08:12:46;;;;;;;;;;;;;;;;;;5095069;28;20280;-72
2022/04/06 08:15:12;;;;;;;;;;;;;;;;;;5075821;28;20360;-72
2022/04/06 08:17:38;;;;;;;;;;;;;;;;;;5094217;28;19920;-72
2022/04/06 08:20:04;;;;;;;;;;;;;;;;;;5095448;28;19922;-71
2022/04/06 08:22:31;;;;;;;;;;;;;;;;;;5077250;28;19915;-74
2022/04/06 08:24:57;;;;;;;;;;;;;;;;;;5095014;28;19989;-74
2022/04/06 08:27:23;;;;;;;;;;;;;;;;;;5095209;28;19935;-73
2022/04/06 08:30:59;;;;;;;;;;;;;;;;;;5090430;27;20295;-73
2022/04/06 08:34:20;;;;;;;;;;;;;;;;;;5095860;27;19939;-75
2022/04/06 08:39:56;;;;;;;;;;;;;;;;;;5090383;27;19920;-72
2022/04/06 08:42:22;;;;;;;;;;;;;;;;;;5080803;28;20464;-72
2022/04/06 08:44:48;;;;;;;;;;;;;;;;;;5068178;28;20004;-73
2022/04/06 08:47:14;;;;;;;;;;;;;;;;;;5056038;28;20293;-71
2022/04/06 08:49:40;;;;;;;;;;;;;;;;;;5044957;28;19963;-72
2022/04/06 08:52:06;;;;;;;;;;;;;;;;;;5045132;28;19917;-72
2022/04/06 08:54:32;;;;;;;;;;;;;;;;;;5045433;28;19909;-71
2022/04/06 08:58:07;;;;;;;;;;;;;;;;;;5075092;27;20380;-71
2022/04/06 09:00:33;;;;;;;;;;;;;;;;;;5065268;28;20422;-72
2022/04/06 09:03:46;;;;;;;;;;;;;;;;;;5087257;27;19999;-71
2022/04/06 09:06:12;;;;;;;;;;;;;;;;;;5088814;28;19952;-71
2022/04/06 09:08:41;;;;;;;;;;;;;;;;;;5089922;28;19954;-71
2022/04/06 09:11:07;;;;;;;;;;;;;;;;;;5088311;28;20416;-70
2022/04/06 09:13:33;;;;;;;;;;;;;;;;;;5087770;28;20496;-69
2022/04/06 09:15:59;;;;;;;;;;;;;;;;;;5087244;28;19932;-71
2022/04/06 09:18:25;;;;;;;;;;;;;;;;;;5086875;28;19916;-70
2022/04/06 09:22:16;;;;;;;;;;;;;;;;;;5089598;27;19921;-75
2022/04/06 09:24:42;;;;;;;;;;;;;;;;;;5089415;28;19940;-78
2022/04/06 09:27:08;;;;;;;;;;;;;;;;;;5087904;28;20354;-73
2022/04/06 09:29:35;;;;;;;;;;;;;;;;;;5089920;28;20007;-74
2022/04/06 09:34:38;;;;;;;;;;;;;;;;;;5172139;27;20445;-74
2022/04/06 09:37:04;;;;;;;;;;;;;;;;;;5141363;27;19912;-72
2022/04/06 09:41:19;;;;;;;;;;;;;;;;;;5109215;27;19922;-76
2022/04/06 09:49:37;;;;;;;;;;;;;;;;;;5109193;27;19922;-73
2022/04/06 09:52:03;;;;;;;;;;;;;;;;;;5109431;28;19912;-73
2022/04/06 09:54:29;;;;;;;;;;;;;;;;;;5109775;28;19998;-72
2022/04/06 09:56:55;;;;;;;;;;;;;;;;;;5109133;28;19908;-74
2022/04/06 09:59:21;;;;;;;;;;;;;;;;;;5107215;28;19965;-76
2022/04/06 10:01:47;;;;;;;;;;;;;;;;;;5106469;28;19908;-71
2022/04/06 10:04:13;;;;;;;;;;;;;;;;;;5108513;28;19916;-73
2022/04/06 10:09:46;;;;;;;;;;;;;;;;;;5132177;27;20495;-74
2022/04/06 10:13:53;;;;;;;;;;;;;;;;;;5087848;28;20292;-77
2022/04/06 10:16:20;;;;;;;;;;;;;;;;;;5085060;28;19924;-75
2022/04/06 10:18:46;;;;;;;;;;;;;;;;;;5075623;28;20088;-75
2022/04/06 10:21:43;;;;;;;;;;;;;;;;;;5141601;27;19922;-75
2022/04/06 10:24:09;;;;;;;;;;;;;;;;;;5128049;28;20003;-73
2022/04/06 10:27:15;;;;;;;;;;;;;;;;;;5107232;27;20161;-74
2022/04/06 10:29:41;;;;;;;;;;;;;;;;;;5110164;28;19934;-73
2022/04/06 10:36:21;;;;;;;;;;;;;;;;;;5089962;27;19916;-71
2022/04/06 10:38:47;;;;;;;;;;;;;;;;;;5090043;28;19919;-72
2022/04/06 10:41:13;;;;;;;;;;;;;;;;;;5090211;28;19908;-72
2022/04/06 10:45:52;;;;;;;;;;;;;;;;;;5088459;27;19916;-71
2022/04/06 10:48:22;;;;;;;;;;;;;;;;;;5090564;28;19913;-72
2022/04/06 10:52:00;;;;;;;;;;;;;;;;;;5090629;27;20402;-71
2022/04/06 10:54:59;;;;;;;;;;;;;;;;;;5091418;27;19916;-73
2022/04/06 10:57:25;;;;;;;;;;;;;;;;;;5090830;28;19935;-71
2022/04/06 11:02:25;;;;;;;;;;;;;;;;;;5090973;27;19916;-72
2022/04/06 11:04:52;;;;;;;;;;;;;;;;;;5090916;28;19923;-73
2022/04/06 11:10:06;;;;;;;;;;;;;;;;;;5087794;28;20365;-73
2022/04/06 11:10:07;;;;;;;;;;;;;;;;;;5088219;28;19912;-72
2022/04/06 11:12:33;;;;;;;;;;;;;;;;;;5086850;28;19909;-73
2022/04/06 11:15:46;;;;;;;;;;;;;;;;;;5089194;27;19920;-73
2022/04/06 11:18:12;;;;;;;;;;;;;;;;;;5087467;28;19922;-72
2022/04/06 11:20:38;;;;;;;;;;;;;;;;;;5087967;28;20019;-72
2022/04/06 11:24:28;;;;;;;;;;;;;;;;;;5088018;27;19912;-71
2022/04/06 11:26:54;;;;;;;;;;;;;;;;;;5089902;28;19974;-72
2022/04/06 11:29:20;;;;;;;;;;;;;;;;;;5090103;28;19916;-72
2022/04/06 11:31:45;;;;;;;;;;;;;;;;;;5090409;28;19912;-73
2022/04/06 11:34:11;;;;;;;;;;;;;;;;;;5090156;28;20019;-71
2022/04/06 11:36:37;;;;;;;;;;;;;;;;;;5090496;28;19954;-71
2022/04/06 11:39:03;;;;;;;;;;;;;;;;;;5090436;28;19909;-71
2022/04/06 11:41:29;;;;;;;;;;;;;;;;;;5089786;28;19956;-73
2022/04/06 11:43:55;;;;;;;;;;;;;;;;;;5089552;28;19920;-72
2022/04/06 11:47:09;;;;;;;;;;;;;;;;;;5089632;28;19920;-71
2022/04/06 11:51:08;;;;;;;;;;;;;;;;;;5111891;27;20294;-71
2022/04/06 11:53:34;;;;;;;;;;;;;;;;;;5111195;28;19919;-73
2022/04/06 11:56:01;;;;;;;;;;;;;;;;;;5109196;28;20008;-72
2022/04/06 11:58:28;;;;;;;;;;;;;;;;;;5111006;28;19912;-73
2022/04/06 12:00:54;;;;;;;;;;;;;;;;;;5110586;28;20382;-73
2022/04/06 12:03:20;;;;;;;;;;;;;;;;;;5109170;28;20445;-74
2022/04/06 12:08:04;;;;;;;;;;;;;;;;;;5090591;28;20315;-71
2022/04/06 12:10:30;;;;;;;;;;;;;;;;;;5091087;28;19917;-72
2022/04/06 12:12:56;;;;;;;;;;;;;;;;;;5089369;28;20334;-73
2022/04/06 12:15:22;;;;;;;;;;;;;;;;;;5090215;28;19962;-72
2022/04/06 12:17:48;;;;;;;;;;;;;;;;;;5088756;28;19913;-72
2022/04/06 12:20:14;;;;;;;;;;;;;;;;;;5090221;28;19981;-72
2022/04/06 12:22:40;;;;;;;;;;;;;;;;;;5089607;28;19916;-72
2022/04/06 12:26:12;;;;;;;;;;;;;;;;;;5090959;27;19912;-73
2022/04/06 12:28:38;;;;;;;;;;;;;;;;;;5089177;28;19913;-73
2022/04/06 12:31:05;;;;;;;;;;;;;;;;;;5090224;28;20249;-71
2022/04/06 12:33:31;;;;;;;;;;;;;;;;;;5090700;28;19947;-72
2022/04/06 12:35:57;;;;;;;;;;;;;;;;;;5090714;28;19912;-73
2022/04/06 12:38:26;;;;;;;;;;;;;;;;;;5090570;28;20279;-73
2022/04/06 12:40:52;;;;;;;;;;;;;;;;;;5090711;28;19909;-71
2022/04/06 12:43:18;;;;;;;;;;;;;;;;;;5090472;28;20265;-72
2022/04/06 12:45:44;;;;;;;;;;;;;;;;;;5090745;28;20007;-71
2022/04/06 12:48:10;;;;;;;;;;;;;;;;;;5090533;28;19919;-72
2022/04/06 12:50:36;;;;;;;;;;;;;;;;;;5088992;28;20599;-72
2022/04/06 12:53:02;;;;;;;;;;;;;;;;;;5088869;28;19909;-71
2022/04/06 12:55:28;;;;;;;;;;;;;;;;;;5087281;28;19908;-71
2022/04/06 12:57:55;;;;;;;;;;;;;;;;;;5088555;28;20151;-71
2022/04/06 13:00:24;;;;;;;;;;;;;;;;;;5089350;28;19913;-75
2022/04/06 13:02:50;;;;;;;;;;;;;;;;;;5090032;28;19918;-71
2022/04/06 13:05:16;;;;;;;;;;;;;;;;;;5089712;28;20005;-70
2022/04/06 13:07:42;;;;;;;;;;;;;;;;;;5090367;28;19908;-70
2022/04/06 13:10:08;;;;;;;;;;;;;;;;;;5089178;28;19914;-70
2022/04/06 13:12:34;;;;;;;;;;;;;;;;;;5090186;28;20284;-70
2022/04/06 13:15:00;;;;;;;;;;;;;;;;;;5090513;28;20081;-70
2022/04/06 13:17:26;;;;;;;;;;;;;;;;;;5090232;28;19908;-70
2022/04/06 13:19:52;;;;;;;;;;;;;;;;;;5090087;28;19967;-70
2022/04/06 13:22:18;;;;;;;;;;;;;;;;;;5090320;28;19908;-70
2022/04/06 13:24:44;;;;;;;;;;;;;;;;;;5098592;28;19920;-70
2022/04/06 13:27:10;;;;;;;;;;;;;;;;;;5110085;28;19939;-70
2022/04/06 13:29:36;;;;;;;;;;;;;;;;;;5110698;28;19916;-70
2022/04/06 13:32:02;;;;;;;;;;;;;;;;;;5110433;28;19912;-70
2022/04/06 13:34:28;;;;;;;;;;;;;;;;;;5110101;28;19933;-71
2022/04/06 13:36:54;;;;;;;;;;;;;;;;;;5100095;28;19909;-71
2022/04/06 13:39:20;;;;;;;;;;;;;;;;;;5096575;28;19923;-71
2022/04/06 13:41:48;;;;;;;;;;;;;;;;;;5078613;28;19908;-70
2022/04/06 13:44:14;;;;;;;;;;;;;;;;;;5096684;28;19912;-71
2022/04/06 13:46:40;;;;;;;;;;;;;;;;;;5096119;28;19916;-70
2022/04/06 13:49:06;;;;;;;;;;;;;;;;;;5096537;28;19930;-70
2022/04/06 13:51:32;;;;;;;;;;;;;;;;;;5096566;28;19908;-70
2022/04/06 13:53:58;;;;;;;;;;;;;;;;;;5096263;28;20375;-70
2022/04/06 13:56:24;;;;;;;;;;;;;;;;;;5096691;28;19908;-71
2022/04/06 13:58:50;;;;;;;;;;;;;;;;;;5096223;28;19919;-71
2022/04/06 14:01:16;;;;;;;;;;;;;;;;;;5096224;28;19908;-70
2022/04/06 14:03:42;;;;;;;;;;;;;;;;;;5078171;28;19908;-70
2022/04/06 14:06:08;;;;;;;;;;;;;;;;;;5096167;28;19946;-70
2022/04/06 14:08:34;;;;;;;;;;;;;;;;;;5077589;28;19999;-71
2022/04/06 14:11:00;;;;;;;;;;;;;;;;;;5096099;28;19912;-71
2022/04/06 14:13:26;;;;;;;;;;;;;;;;;;5078037;28;19958;-70
2022/04/06 14:15:52;;;;;;;;;;;;;;;;;;5077356;28;19977;-71
2022/04/06 14:18:19;;;;;;;;;;;;;;;;;;5096051;28;19933;-71
2022/04/06 14:20:45;;;;;;;;;;;;;;;;;;5096395;28;19999;-71
2022/04/06 14:23:11;;;;;;;;;;;;;;;;;;5095617;28;20444;-71
2022/04/06 14:25:37;;;;;;;;;;;;;;;;;;5077367;28;19920;-69
2022/04/06 14:28:03;;;;;;;;;;;;;;;;;;5077509;28;19915;-71
2022/04/06 14:30:31;;;;;;;;;;;;;;;;;;5095211;28;19908;-69
2022/04/06 14:32:57;;;;;;;;;;;;;;;;;;5077533;28;20299;-69
2022/04/06 14:35:23;;;;;;;;;;;;;;;;;;5096074;28;19908;-71
2022/04/06 14:37:49;;;;;;;;;;;;;;;;;;5095189;28;19908;-72
2022/04/06 14:40:15;;;;;;;;;;;;;;;;;;5095569;28;19908;-70
2022/04/06 14:42:41;;;;;;;;;;;;;;;;;;5095053;28;19908;-69
2022/04/06 14:45:07;;;;;;;;;;;;;;;;;;5095472;28;20367;-70
2022/04/06 14:47:33;;;;;;;;;;;;;;;;;;5094733;28;19953;-71
2022/04/06 14:49:59;;;;;;;;;;;;;;;;;;5094848;28;20755;-70
2022/04/06 14:52:25;;;;;;;;;;;;;;;;;;5077265;28;19999;-71
2022/04/06 14:54:51;;;;;;;;;;;;;;;;;;5095211;28;19962;-71
2022/04/06 14:57:17;;;;;;;;;;;;;;;;;;5094885;28;19916;-71
2022/04/06 14:59:43;;;;;;;;;;;;;;;;;;5095191;28;19908;-70
2022/04/06 15:02:12;;;;;;;;;;;;;;;;;;5095420;28;20284;-71
2022/04/06 15:04:38;;;;;;;;;;;;;;;;;;5095012;28;19973;-70
2022/04/06 15:07:04;;;;;;;;;;;;;;;;;;5095052;28;19939;-70
2022/04/06 15:11:02;;;;;;;;;;;;;;;;;;5091285;27;20312;-70
2022/04/06 15:13:28;;;;;;;;;;;;;;;;;;5090043;28;19913;-70
2022/04/06 15:15:54;;;;;;;;;;;;;;;;;;5091346;28;19999;-70
2022/04/06 15:18:20;;;;;;;;;;;;;;;;;;5090822;28;19995;-70
2022/04/06 15:20:46;;;;;;;;;;;;;;;;;;5091174;28;19938;-69
2022/04/06 15:23:12;;;;;;;;;;;;;;;;;;5091617;28;20352;-69
2022/04/06 15:25:45;;;;;;;;;;;;;;;;;;5090791;28;19908;-70
2022/04/06 15:28:10;;;;;;;;;;;;;;;;;;5091063;28;19917;-69
2022/04/06 15:30:37;;;;;;;;;;;;;;;;;;5090841;28;19916;-69
2022/04/06 15:33:03;;;;;;;;;;;;;;;;;;5090566;28;19909;-69
2022/04/06 15:38:13;;;;;;;;;;;;;;;;;;5087863;28;19915;-70
2022/04/06 15:40:39;;;;;;;;;;;;;;;;;;5090199;28;19908;-69
2022/04/06 15:43:06;;;;;;;;;;;;;;;;;;5090786;28;19940;-70
2022/04/06 15:45:32;;;;;;;;;;;;;;;;;;5089287;28;19908;-71
2022/04/06 15:47:58;;;;;;;;;;;;;;;;;;5090236;28;20376;-70
2022/04/06 15:50:24;;;;;;;;;;;;;;;;;;5089136;28;19920;-70
2022/04/06 15:52:50;;;;;;;;;;;;;;;;;;5090610;28;20367;-69
2022/04/06 15:55:19;;;;;;;;;;;;;;;;;;5088876;28;19908;-70
2022/04/06 15:57:45;;;;;;;;;;;;;;;;;;5090395;28;19908;-70
2022/04/06 16:00:11;;;;;;;;;;;;;;;;;;5090402;28;19912;-71
2022/04/06 16:02:37;;;;;;;;;;;;;;;;;;5089956;28;19909;-72
2022/04/06 16:05:03;;;;;;;;;;;;;;;;;;5090815;28;19915;-71
2022/04/06 16:07:30;;;;;;;;;;;;;;;;;;5088358;28;19915;-70
2022/04/06 16:11:55;;;;;;;;;;;;;;;;;;5091438;27;19917;-71
2022/04/06 16:14:21;;;;;;;;;;;;;;;;;;5091107;28;19971;-71
2022/04/06 16:19:03;;;;;;;;;;;;;;;;;;5091433;27;19919;-70
2022/04/06 16:23:49;;;;;;;;;;;;;;;;;;5091975;27;19916;-70
2022/04/06 16:26:15;;;;;;;;;;;;;;;;;;5091312;28;19912;-70
2022/04/06 16:28:42;;;;;;;;;;;;;;;;;;5091243;28;19916;-70
2022/04/06 16:31:10;;;;;;;;;;;;;;;;;;5091280;28;19912;-70
2022/04/06 16:33:36;;;;;;;;;;;;;;;;;;5091306;28;19944;-70
2022/04/06 16:36:06;;;;;;;;;;;;;;;;;;5090697;28;19916;-71
2022/04/06 16:38:32;;;;;;;;;;;;;;;;;;5091035;28;19915;-71
2022/04/06 16:40:58;;;;;;;;;;;;;;;;;;5091613;28;19908;-71
2022/04/06 16:45:16;;;;;;;;;;;;;;;;;;5089050;27;19923;-71
2022/04/06 16:48:34;;;;;;;;;;;;;;;;;;5091309;27;19917;-70
2022/04/06 16:54:47;;;;;;;;;;;;;;;;;;5091457;28;19919;-71
2022/04/06 16:57:13;;;;;;;;;;;;;;;;;;5089514;28;19908;-70
2022/04/06 16:59:39;;;;;;;;;;;;;;;;;;5091369;28;20360;-70
2022/04/06 17:02:05;;;;;;;;;;;;;;;;;;5091184;28;19908;-70
2022/04/06 17:09:25;;;;;;;;;;;;;;;;;;5153141;27;20013;-70
2022/04/06 17:11:52;;;;;;;;;;;;;;;;;;5152726;27;20006;-70
2022/04/06 17:14:20;;;;;;;;;;;;;;;;;;5152892;27;19907;-70
2022/04/06 17:17:43;;;;;;;;;;;;;;;;;;5091695;27;19917;-71
2022/04/06 17:20:10;;;;;;;;;;;;;;;;;;5091318;28;20368;-70
2022/04/06 17:22:36;;;;;;;;;;;;;;;;;;5089824;28;19915;-70
2022/04/06 17:25:02;;;;;;;;;;;;;;;;;;5094684;28;19908;-70
2022/04/06 17:36:36;;;;;;;;;;;;;;;;;;5091696;27;19912;-70
2022/04/06 17:39:02;;;;;;;;;;;;;;;;;;5090951;28;20376;-70
2022/04/06 17:43:20;;;;;;;;;;;;;;;;;;5091530;27;19916;-70
2022/04/06 17:45:46;;;;;;;;;;;;;;;;;;5089595;28;20003;-70
2022/04/06 17:48:12;;;;;;;;;;;;;;;;;;5091286;28;19908;-70
2022/04/06 17:50:39;;;;;;;;;;;;;;;;;;5090755;28;19999;-69
2022/04/06 17:54:05;;;;;;;;;;;;;;;;;;5091058;28;20291;-71
2022/04/06 17:56:31;;;;;;;;;;;;;;;;;;5091242;28;19912;-71
2022/04/06 17:58:57;;;;;;;;;;;;;;;;;;5091372;28;19962;-70
2022/04/06 18:01:23;;;;;;;;;;;;;;;;;;5090789;28;19909;-71